Time;durP1;ratioP1;P1;durP2;ratioP2;P2;SDS_P1;SDS_P2;PMS_P1;PMS_P2;Temp;Humidity;BMP_temperature;BMP_pressure;BME280_temperature;BME280_humidity;BME280_pressure;Samples;Min_cycle;Max_cycle;Signal;HPM_P1;HPM_P2
2021/11/01 00:01:28;;;;;;;;;7.75;2.00;;;;;19.18;100.00;99717.72;5065957;28;45213;-78
2021/11/01 00:03:54;;;;;;;;;2.00;2.00;;;;;19.12;100.00;99706.91;5061909;28;45160;-79
2021/11/01 00:06:19;;;;;;;;;4.00;2.00;;;;;19.14;100.00;99708.38;5043189;28;47399;-79
2021/11/01 00:08:45;;;;;;;;;0.25;0.00;;;;;19.19;100.00;99700.63;5041752;28;45235;-79
2021/11/01 00:11:10;;;;;;;;;9.25;2.00;;;;;19.21;100.00;99703.94;5023284;28;45295;-79
2021/11/01 00:13:36;;;;;;;;;4.00;2.00;;;;;19.14;100.00;99702.19;5046825;28;45542;-80
2021/11/01 00:16:01;;;;;;;;;4.25;2.25;;;;;19.33;100.00;99698.97;5061338;28;45537;-80
2021/11/01 00:18:27;;;;;;;;;3.00;2.00;;;;;19.04;100.00;99697.94;5060926;28;45364;-80
2021/11/01 00:20:52;;;;;;;;;5.00;1.25;;;;;18.99;100.00;99704.84;5061400;28;45292;-80
2021/11/01 00:23:18;;;;;;;;;3.50;2.00;;;;;18.97;100.00;99701.53;5061229;28;45551;-81
2021/11/01 00:25:43;;;;;;;;;3.00;2.00;;;;;18.87;100.00;99699.13;5061173;28;45367;-80
2021/11/01 00:28:11;;;;;;;;;0.50;0.50;;;;;18.90;100.00;99701.44;5066098;28;45402;-80
2021/11/01 00:30:36;;;;;;;;;2.00;1.00;;;;;18.88;100.00;99697.28;5060995;28;45146;-80
2021/11/01 00:33:02;;;;;;;;;5.75;2.00;;;;;18.85;100.00;99695.78;5060572;28;45467;-80
2021/11/01 00:35:28;;;;;;;;;5.25;3.25;;;;;18.90;100.00;99695.25;5060851;28;46271;-80
2021/11/01 00:37:53;;;;;;;;;4.00;1.00;;;;;18.89;100.00;99672.19;5061758;28;45311;-80
2021/11/01 00:40:19;;;;;;;;;3.25;2.00;;;;;18.83;100.00;99689.81;5046829;28;45230;-80
2021/11/01 00:42:44;;;;;;;;;4.00;1.00;;;;;18.84;100.00;99688.81;5062170;28;45174;-80
2021/11/01 00:45:10;;;;;;;;;4.00;1.00;;;;;18.77;100.00;99677.13;5060440;28;46145;-80
2021/11/01 00:47:35;;;;;;;;;4.25;1.75;;;;;18.86;100.00;99677.88;5042090;28;45246;-80
2021/11/01 00:50:01;;;;;;;;;5.00;2.00;;;;;19.01;100.00;99665.38;5060823;28;45651;-80
2021/11/01 00:52:29;;;;;;;;;3.75;1.00;;;;;18.85;100.00;99677.06;5060522;28;45355;-81
2021/11/01 00:55:02;;;;;;;;;4.25;1.75;;;;;18.78;100.00;99664.59;5060506;28;45450;-81
2021/11/01 00:57:29;;;;;;;;;5.50;2.00;;;;;18.69;100.00;99647.81;5072392;28;45222;-81
2021/11/01 00:59:56;;;;;;;;;3.50;0.00;;;;;18.70;100.00;99654.81;5059746;28;45591;-81
2021/11/01 01:02:22;;;;;;;;;2.75;2.00;;;;;18.58;100.00;99653.59;5060401;28;45329;-82
2021/11/01 01:04:48;;;;;;;;;6.25;1.00;;;;;18.67;100.00;99650.66;5060301;28;45217;-81
2021/11/01 01:07:13;;;;;;;;;1.25;1.00;;;;;18.72;100.00;99660.00;5042039;28;45746;-81
2021/11/01 01:09:39;;;;;;;;;7.75;1.00;;;;;18.68;100.00;99648.81;5060394;28;45466;-81
2021/11/01 01:12:07;;;;;;;;;10.50;3.00;;;;;18.64;100.00;99659.06;5060262;28;45154;-81
2021/11/01 01:14:39;;;;;;;;;3.50;1.00;;;;;18.47;100.00;99656.69;5065338;28;45782;-81
2021/11/01 01:17:05;;;;;;;;;2.75;1.50;;;;;18.54;100.00;99649.59;5043372;28;45335;-81
2021/11/01 01:19:42;;;;;;;;;8.00;1.00;;;;;18.49;100.00;99649.28;5046062;28;45249;-81
2021/11/01 01:22:14;;;;;;;;;8.75;1.50;;;;;18.52;100.00;99646.28;5062646;28;45291;-81
2021/11/01 01:24:39;;;;;;;;;2.00;2.00;;;;;18.53;100.00;99648.78;5061923;28;46460;-81
2021/11/01 01:27:05;;;;;;;;;6.25;0.75;;;;;18.55;100.00;99630.72;5062560;28;45197;-81
2021/11/01 01:29:30;;;;;;;;;5.00;1.25;;;;;18.75;100.00;99632.91;5044731;28;45565;-81
2021/11/01 01:31:56;;;;;;;;;2.00;2.00;;;;;18.49;100.00;99634.09;5060347;28;45404;-81
2021/11/01 01:34:21;;;;;;;;;4.25;2.00;;;;;18.61;100.00;99626.50;5041565;28;46900;-81
2021/11/01 01:36:46;;;;;;;;;2.75;2.00;;;;;18.73;100.00;99627.72;5060054;28;45489;-82
2021/11/01 01:39:12;;;;;;;;;4.25;2.00;;;;;18.79;100.00;99631.50;5059840;28;45347;-82
2021/11/01 01:41:44;;;;;;;;;2.00;1.00;;;;;18.77;100.00;99637.03;5060077;28;45423;-81
2021/11/01 01:44:09;;;;;;;;;7.50;3.00;;;;;18.81;100.00;99635.66;5059472;28;46140;-81
2021/11/01 01:46:35;;;;;;;;;5.75;2.50;;;;;18.79;100.00;99632.31;5059981;28;45486;-81
2021/11/01 01:49:00;;;;;;;;;5.75;2.50;;;;;18.84;100.00;99637.97;5059763;28;45776;-81
2021/11/01 01:51:28;;;;;;;;;2.00;1.50;;;;;18.92;100.00;99621.00;5060089;28;45447;-81
2021/11/01 01:53:54;;;;;;;;;4.00;2.25;;;;;18.90;100.00;99631.03;5061582;28;45315;-81
2021/11/01 01:56:22;;;;;;;;;1.00;1.00;;;;;18.80;100.00;99617.09;5053490;28;45805;-81
2021/11/01 01:58:52;;;;;;;;;2.50;1.00;;;;;18.79;100.00;99623.47;5060044;28;45304;-81
2021/11/01 02:01:18;;;;;;;;;2.50;1.00;;;;;18.67;100.00;99615.06;5042271;28;45463;-81
2021/11/01 02:03:50;;;;;;;;;4.75;0.75;;;;;18.68;100.00;99620.22;5023264;28;48283;-81
2021/11/01 02:06:27;;;;;;;;;3.00;1.00;;;;;18.61;100.00;99616.63;5039481;28;45473;-81
2021/11/01 02:09:25;;;;;;;;;4.50;2.00;;;;;18.80;100.00;99623.28;5046905;28;45471;-81
2021/11/01 02:11:54;;;;;;;;;4.50;0.50;;;;;18.67;100.00;99623.91;5042517;28;45524;-81
2021/11/01 02:14:39;;;;;;;;;4.00;1.00;;;;;18.54;100.00;99625.53;5050459;28;47592;-81
2021/11/01 02:17:06;;;;;;;;;2.00;1.00;;;;;18.57;100.00;99619.88;5063617;28;45320;-81
2021/11/01 02:19:45;;;;;;;;;3.00;1.00;;;;;18.60;100.00;99608.78;5063644;28;45491;-81
2021/11/01 02:22:20;;;;;;;;;3.75;0.00;;;;;18.54;100.00;99596.97;5063365;28;45323;-81
2021/11/01 02:25:03;;;;;;;;;6.25;1.00;;;;;18.71;100.00;99612.88;5062691;28;46144;-81
2021/11/01 02:27:32;;;;;;;;;4.25;0.75;;;;;18.61;100.00;99615.81;5068510;28;45558;-81
2021/11/01 02:29:59;;;;;;;;;3.50;1.00;;;;;18.54;100.00;99620.19;5049894;28;45241;-81
2021/11/01 02:32:25;;;;;;;;;3.00;0.00;;;;;18.56;100.00;99627.03;5062745;28;45521;-81
2021/11/01 02:34:51;;;;;;;;;2.00;0.00;;;;;18.47;100.00;99620.09;5063504;28;46165;-81
2021/11/01 02:37:17;;;;;;;;;4.00;0.00;;;;;18.42;100.00;99625.13;5066247;28;45271;-80
2021/11/01 02:39:54;;;;;;;;;5.50;2.00;;;;;18.57;100.00;99631.38;5065216;28;45690;-81
2021/11/01 02:42:22;;;;;;;;;2.00;1.00;;;;;18.43;100.00;99631.31;5062570;28;45371;-81
2021/11/01 02:45:04;;;;;;;;;2.25;0.50;;;;;18.53;100.00;99630.06;5062639;28;45494;-81
2021/11/01 02:47:30;;;;;;;;;2.00;0.25;;;;;18.51;100.00;99633.91;5062232;28;45652;-81
2021/11/01 02:49:58;;;;;;;;;1.50;0.00;;;;;18.52;100.00;99625.72;5062965;28;45481;-81
2021/11/01 02:52:25;;;;;;;;;1.50;1.00;;;;;18.57;100.00;99620.66;5062374;28;45542;-81
2021/11/01 02:54:51;;;;;;;;;2.00;1.00;;;;;18.52;100.00;99622.22;5062692;28;46505;-81
2021/11/01 02:57:17;;;;;;;;;1.75;1.00;;;;;18.57;100.00;99625.22;5043903;28;45806;-81
2021/11/01 02:59:42;;;;;;;;;2.00;1.00;;;;;18.61;100.00;99616.63;5044268;28;45303;-81
2021/11/01 03:02:08;;;;;;;;;4.00;1.00;;;;;18.60;100.00;99624.84;5043939;28;45418;-81
2021/11/01 03:04:33;;;;;;;;;2.50;1.00;;;;;18.51;100.00;99621.38;5044108;28;47115;-81
2021/11/01 03:06:59;;;;;;;;;2.75;1.00;;;;;18.52;100.00;99624.88;5062262;28;45408;-81
2021/11/01 03:09:28;;;;;;;;;1.25;1.00;;;;;18.58;100.00;99619.66;5044889;28;45388;-81
2021/11/01 03:11:55;;;;;;;;;0.50;0.25;;;;;18.49;100.00;99626.06;5044096;28;45513;-82
2021/11/01 03:14:27;;;;;;;;;2.75;1.00;;;;;18.76;100.00;99613.97;5068264;28;46108;-79
2021/11/01 03:17:00;;;;;;;;;0.00;0.00;;;;;18.66;100.00;99608.06;5062121;28;45418;-80
2021/11/01 03:19:29;;;;;;;;;4.75;0.00;;;;;18.71;100.00;99620.88;5062730;28;45405;-80
2021/11/01 03:21:57;;;;;;;;;3.75;0.50;;;;;18.78;100.00;99621.81;5044247;28;45926;-79
2021/11/01 03:24:23;;;;;;;;;5.00;1.00;;;;;18.66;100.00;99622.25;5041481;28;48599;-80
2021/11/01 03:26:49;;;;;;;;;0.25;0.00;;;;;18.68;100.00;99620.22;5043956;28;45406;-80
2021/11/01 03:29:15;;;;;;;;;0.00;0.00;;;;;18.58;100.00;99619.66;5031904;28;45419;-80
2021/11/01 03:31:41;;;;;;;;;2.25;0.00;;;;;18.54;100.00;99628.22;5024034;28;45309;-81
2021/11/01 03:34:09;;;;;;;;;1.50;1.50;;;;;18.61;100.00;99627.34;5040457;28;46573;-80
2021/11/01 03:36:37;;;;;;;;;4.00;0.75;;;;;18.50;100.00;99637.59;5003909;28;45275;-80
2021/11/01 03:39:06;;;;;;;;;2.75;1.00;;;;;18.50;100.00;99638.44;5021741;28;45524;-80
2021/11/01 03:41:33;;;;;;;;;2.00;0.00;;;;;18.40;100.00;99640.53;5021963;28;45444;-79
2021/11/01 03:44:09;;;;;;;;;0.00;0.00;;;;;18.37;100.00;99640.91;5021260;28;45318;-80
2021/11/01 03:46:44;;;;;;;;;3.25;1.00;;;;;18.46;100.00;99641.66;5021645;28;45440;-80
2021/11/01 03:49:11;;;;;;;;;0.25;0.25;;;;;18.23;100.00;99639.00;5021490;28;45229;-80
2021/11/01 03:54:12;;;;;;;;;3.00;1.00;;;;;18.35;100.00;99645.59;5024242;28;46062;-80
2021/11/01 03:56:39;;;;;;;;;1.00;1.00;;;;;18.29;100.00;99644.47;5007956;28;45643;-80
2021/11/01 03:59:06;;;;;;;;;4.25;1.50;;;;;18.16;100.00;99649.59;5035294;28;45253;-80
2021/11/01 04:01:36;;;;;;;;;2.00;1.00;;;;;18.12;100.00;99664.28;5022040;28;45360;-80
2021/11/01 04:04:01;;;;;;;;;1.75;1.00;;;;;18.01;100.00;99655.88;5010444;28;46192;-80
2021/11/01 04:06:27;;;;;;;;;3.75;1.00;;;;;18.03;100.00;99668.03;5023338;28;45539;-80
2021/11/01 04:08:53;;;;;;;;;1.00;0.75;;;;;18.14;100.00;99661.44;5041428;28;45293;-80
2021/11/01 04:11:19;;;;;;;;;1.00;1.00;;;;;18.23;100.00;99665.72;5023156;28;45346;-80
2021/11/01 04:13:44;;;;;;;;;1.00;1.00;;;;;18.37;100.00;99666.81;5028606;28;47142;-80
2021/11/01 04:16:12;;;;;;;;;2.00;0.50;;;;;18.38;100.00;99663.13;5040914;28;45412;-80
2021/11/01 04:21:23;;;;;;;;;7.50;7.00;;;;;18.32;100.00;99656.63;5041203;28;45322;-80
2021/11/01 04:23:49;;;;;;;;;3.50;1.00;;;;;18.41;100.00;99662.72;5041404;28;46384;-80
2021/11/01 04:26:17;;;;;;;;;1.00;0.75;;;;;18.55;100.00;99652.09;5041016;28;45210;-80
2021/11/01 04:28:43;;;;;;;;;1.00;1.00;;;;;18.56;100.00;99660.94;5059343;28;45382;-80
2021/11/01 04:31:17;;;;;;;;;2.25;1.75;;;;;18.52;100.00;99655.13;5057973;28;45319;-80
2021/11/01 04:33:43;;;;;;;;;1.00;0.00;;;;;18.57;100.00;99658.09;5044770;28;46220;-80
2021/11/01 04:36:10;;;;;;;;;0.00;0.00;;;;;18.67;100.00;99663.19;5046511;28;45935;-80
2021/11/01 04:38:55;;;;;;;;;4.00;0.00;;;;;18.59;100.00;99656.09;5049987;28;45430;-80
2021/11/01 04:41:28;;;;;;;;;1.75;0.00;;;;;18.64;100.00;99652.88;5029852;28;45415;-80
2021/11/01 04:54:57;;;;;;;;;2.75;0.00;;;;;18.81;100.00;99645.53;5060579;28;45321;-80
2021/11/01 04:57:24;;;;;;;;;0.00;0.00;;;;;18.79;100.00;99663.59;5073109;28;44706;-80
2021/11/01 04:59:50;;;;;;;;;3.75;0.50;;;;;18.78;100.00;99664.59;5048575;28;45359;-80
2021/11/01 05:02:17;;;;;;;;;3.00;0.00;;;;;18.80;100.00;99667.94;5046782;28;45174;-80
2021/11/01 05:04:44;;;;;;;;;0.00;0.00;;;;;18.80;100.00;99659.91;5062676;28;46522;-81
2021/11/01 05:07:10;;;;;;;;;3.00;0.00;;;;;18.88;100.00;99662.50;5054817;28;45344;-80
2021/11/01 05:09:39;;;;;;;;;1.25;0.75;;;;;18.96;100.00;99655.22;5040652;28;45308;-80
2021/11/01 05:14:35;;;;;;;;;0.50;0.50;;;;;18.91;100.00;99657.63;5056424;28;45277;-80
2021/11/01 05:20:43;;;;;;;;;0.00;0.00;;;;;19.00;100.00;99672.56;5005195;28;45387;-80
2021/11/01 05:26:04;;;;;;;;;3.00;0.00;;;;;18.84;100.00;99658.53;5060637;28;45267;-81
2021/11/01 05:30:39;;;;;;;;;3.00;1.25;;;;;18.89;100.00;99664.16;5073162;28;44713;-80
2021/11/01 05:33:17;;;;;;;;;0.50;0.00;;;;;18.90;100.00;99666.66;5064661;28;45226;-80
2021/11/01 05:35:42;;;;;;;;;2.00;1.25;;;;;18.68;100.00;99672.88;5043826;28;48323;-80
2021/11/01 05:38:09;;;;;;;;;1.00;1.00;;;;;18.68;100.00;99668.38;5043046;28;45352;-80
2021/11/01 05:40:35;;;;;;;;;0.00;0.00;;;;;18.63;100.00;99675.28;5061306;28;45394;-80
2021/11/01 05:43:01;;;;;;;;;1.75;0.00;;;;;18.69;100.00;99667.34;5053559;28;45270;-79
2021/11/01 05:45:27;;;;;;;;;2.50;0.00;;;;;18.62;100.00;99676.28;5040181;28;45525;-79
2021/11/01 05:48:02;;;;;;;;;2.00;1.00;;;;;18.57;100.00;99674.16;5026047;28;45237;-80
2021/11/01 05:50:31;;;;;;;;;2.00;0.00;;;;;18.65;100.00;99674.09;5046837;28;45234;-79
2021/11/01 05:52:58;;;;;;;;;2.00;0.00;;;;;18.61;100.00;99678.13;5046236;28;45537;-80
2021/11/01 05:55:37;;;;;;;;;2.00;0.25;;;;;18.60;100.00;99684.50;5025086;28;47088;-79
2021/11/01 05:58:14;;;;;;;;;4.00;1.00;;;;;18.58;100.00;99691.03;5054497;28;45432;-80
2021/11/01 06:03:26;;;;;;;;;1.00;0.50;;;;;18.44;100.00;99691.78;5063053;28;45659;-80
2021/11/01 06:13:31;;;;;;;;;4.00;1.00;;;;;18.47;100.00;99710.16;5069586;28;45355;-80
2021/11/01 06:15:59;;;;;;;;;4.75;1.00;;;;;18.44;100.00;99702.50;5063302;28;46081;-80
2021/11/01 06:18:35;;;;;;;;;1.00;1.00;;;;;18.34;100.00;99710.75;5044719;28;45882;-80
2021/11/01 06:21:05;;;;;;;;;0.25;0.25;;;;;18.33;100.00;99704.56;5063258;28;45541;-80
2021/11/01 06:23:33;;;;;;;;;2.00;0.00;;;;;18.25;100.00;99711.81;5044910;28;45360;-80
2021/11/01 06:25:59;;;;;;;;;0.00;0.00;;;;;18.06;100.00;99717.63;5062847;28;45606;-81
2021/11/01 06:28:25;;;;;;;;;3.00;0.25;;;;;18.03;100.00;99707.31;5069197;28;45573;-80
2021/11/01 06:31:10;;;;;;;;;1.50;0.00;;;;;18.03;100.00;99716.13;5064327;28;45486;-80
2021/11/01 06:34:04;;;;;;;;;2.75;0.00;;;;;18.20;100.00;99725.72;5046944;28;45252;-81
2021/11/01 06:40:02;;;;;;;;;0.75;0.00;;;;;18.18;100.00;99726.91;5046045;28;45419;-80
2021/11/01 06:44:41;;;;;;;;;3.50;1.00;;;;;18.13;100.00;99723.91;5042092;28;45406;-79
2021/11/01 06:49:51;;;;;;;;;2.25;0.25;;;;;18.10;100.00;99716.28;5042299;28;45438;-80
2021/11/01 07:16:24;;;;;;;;;0.00;0.00;;;;;17.89;100.00;99712.38;5047971;28;45308;-79
2021/11/01 08:40:44;;;;;;;;;0.25;0.00;;;;;22.85;84.63;99741.41;5061055;28;45505;-80
2021/11/01 08:48:15;;;;;;;;;1.00;0.00;;;;;23.76;86.08;99742.25;5060623;28;45535;-80
2021/11/01 09:01:40;;;;;;;;;0.25;0.00;;;;;24.22;73.15;99760.13;5063944;28;45569;-80
2021/11/01 09:06:57;;;;;;;;;1.00;0.00;;;;;23.11;78.62;99754.84;5043831;28;45869;-80
2021/11/01 09:20:06;;;;;;;;;0.00;0.00;;;;;23.30;75.53;99737.00;5060068;28;45529;-81
2021/11/01 09:23:02;;;;;;;;;2.50;0.00;;;;;22.85;78.31;99762.94;5059848;28;45234;-80
2021/11/01 09:25:40;;;;;;;;;2.00;0.00;;;;;23.67;76.55;99738.16;5060158;28;45463;-80
2021/11/01 09:28:16;;;;;;;;;1.00;0.00;;;;;23.77;75.36;99740.38;5065095;28;46095;-80
2021/11/01 09:41:24;;;;;;;;;0.00;0.00;;;;;23.67;78.45;99732.75;5062794;28;45379;-81
2021/11/01 09:43:52;;;;;;;;;0.75;0.25;;;;;23.99;76.88;99736.38;5042553;28;45253;-81
2021/11/01 09:46:19;;;;;;;;;3.00;0.00;;;;;24.38;74.84;99738.06;5060372;28;45319;-81
2021/11/01 09:48:45;;;;;;;;;0.00;0.00;;;;;24.57;74.03;99726.31;5059862;28;46002;-81
2021/11/01 09:51:11;;;;;;;;;0.00;0.00;;;;;24.85;71.91;99741.25;5059931;28;45418;-81
2021/11/01 09:53:47;;;;;;;;;7.50;0.75;;;;;25.05;72.04;99731.09;5059850;28;45324;-81
2021/11/01 09:59:14;;;;;;;;;0.00;0.00;;;;;25.21;69.03;99735.13;5059532;28;45229;-81
2021/11/01 10:01:46;;;;;;;;;0.00;0.00;;;;;25.05;68.31;99731.09;5059778;28;45539;-81
2021/11/01 10:04:40;;;;;;;;;0.50;0.00;;;;;24.90;67.03;99730.59;5060010;28;45386;-80
2021/11/01 10:07:34;;;;;;;;;1.00;0.50;;;;;25.04;67.49;99723.25;5057133;28;45244;-81
2021/11/01 10:10:10;;;;;;;;;0.50;0.00;;;;;25.06;66.52;99727.34;5059567;28;46076;-81
2021/11/01 10:12:38;;;;;;;;;1.00;1.00;;;;;25.09;66.62;99735.03;5059504;28;45446;-81
2021/11/01 10:18:03;;;;;;;;;2.00;0.00;;;;;25.41;67.38;99735.72;5063528;28;45299;-81
2021/11/01 10:20:30;;;;;;;;;1.00;0.50;;;;;25.50;65.23;99742.50;5061156;28;45314;-81
2021/11/01 10:22:56;;;;;;;;;1.25;1.25;;;;;25.41;64.49;99733.03;5059541;28;45256;-81
2021/11/01 10:25:23;;;;;;;;;3.75;0.00;;;;;25.63;63.92;99731.56;5041552;28;45472;-81
2021/11/01 10:28:08;;;;;;;;;0.50;0.50;;;;;25.68;64.57;99742.53;5052707;28;45451;-81
2021/11/01 10:30:36;;;;;;;;;1.25;0.00;;;;;25.55;63.23;99733.72;5058045;28;47354;-81
2021/11/01 10:33:07;;;;;;;;;0.00;0.00;;;;;25.42;62.78;99742.78;5042502;28;45607;-81
2021/11/01 10:35:36;;;;;;;;;0.00;0.00;;;;;25.03;62.31;99725.13;5045270;28;45383;-81
2021/11/01 10:40:51;;;;;;;;;1.00;0.50;;;;;25.35;62.92;99732.06;5062857;28;45414;-81
2021/11/01 10:57:27;;;;;;;;;1.50;0.00;;;;;25.40;60.42;99719.75;5065485;28;45348;-80
2021/11/01 11:13:19;;;;;;;;;1.00;0.00;;;;;25.13;59.01;99695.69;5061670;28;45367;-80
2021/11/01 11:15:52;;;;;;;;;1.50;0.00;;;;;24.83;58.78;99681.22;5062421;28;45211;-81
2021/11/01 11:48:04;;;;;;;;;0.25;0.00;;;;;24.18;56.07;99696.84;5055615;28;45404;-80
2021/11/01 11:50:31;;;;;;;;;2.00;0.50;;;;;23.78;57.41;99712.41;5041590;28;45597;-80
2021/11/01 11:53:14;;;;;;;;;0.75;0.00;;;;;23.84;57.72;99695.38;5041458;28;45446;-81
2021/11/01 11:55:41;;;;;;;;;2.00;1.00;;;;;24.02;58.60;99700.06;5031598;28;47483;-80
2021/11/01 11:58:10;;;;;;;;;1.50;0.00;;;;;23.92;58.17;99702.38;5074575;28;45436;-80
2021/11/01 12:00:37;;;;;;;;;0.00;0.00;;;;;23.93;58.07;99699.47;5076372;28;45402;-80
2021/11/01 12:03:22;;;;;;;;;1.00;1.00;;;;;24.28;57.80;99693.69;5078321;28;44826;-80
2021/11/01 12:05:58;;;;;;;;;2.50;1.00;;;;;24.41;56.61;99690.91;5070722;28;45678;-79
2021/11/01 12:08:40;;;;;;;;;0.00;0.00;;;;;24.71;55.95;99689.22;5053873;28;45253;-81
2021/11/01 12:19:36;;;;;;;;;0.00;0.00;;;;;24.19;56.32;99677.75;5061270;28;45167;-80
2021/11/01 12:22:06;;;;;;;;;1.25;0.25;;;;;24.26;56.38;99671.50;5043488;28;45391;-80
2021/11/01 12:24:31;;;;;;;;;2.50;1.00;;;;;23.97;56.57;99671.03;5062573;28;45360;-80
2021/11/01 12:27:06;;;;;;;;;0.00;0.00;;;;;24.34;55.80;99668.53;5045271;28;46324;-80
2021/11/01 12:29:33;;;;;;;;;2.00;0.25;;;;;24.68;54.85;99668.03;5063759;28;45462;-80
2021/11/01 12:32:07;;;;;;;;;0.00;0.00;;;;;24.53;55.67;99665.69;5061277;28;45319;-80
2021/11/01 12:34:38;;;;;;;;;0.50;0.25;;;;;24.42;55.46;99663.69;5042524;28;45842;-81
2021/11/01 12:37:10;;;;;;;;;3.00;0.25;;;;;24.52;55.66;99664.03;5060795;28;46549;-80
2021/11/01 12:39:39;;;;;;;;;0.50;0.00;;;;;24.53;55.67;99652.19;5042835;28;45251;-80
2021/11/01 12:42:22;;;;;;;;;4.00;1.25;;;;;24.43;55.73;99638.38;5043083;28;45409;-80
2021/11/01 12:58:34;;;;;;;;;1.25;1.00;;;;;22.68;82.59;99662.88;5064695;28;45421;-80
2021/11/01 13:01:08;;;;;;;;;2.00;1.00;;;;;22.47;86.13;99635.38;5060484;28;45485;-80
2021/11/01 13:03:34;;;;;;;;;1.25;1.00;;;;;22.16;89.63;99641.34;5060392;28;45376;-80
2021/11/01 13:06:05;;;;;;;;;4.75;0.25;;;;;22.07;80.86;99629.13;5060442;28;45486;-80
2021/11/01 13:08:36;;;;;;;;;1.00;0.00;;;;;22.14;80.03;99630.78;5060185;28;45415;-80
2021/11/01 13:14:26;;;;;;;;;2.50;1.00;;;;;22.08;81.32;99631.63;5023326;28;45290;-80
2021/11/01 13:19:32;;;;;;;;;2.25;1.00;;;;;22.31;79.17;99609.69;5059952;28;45822;-79
2021/11/01 13:22:25;;;;;;;;;2.00;1.25;;;;;22.47;82.19;99593.16;5042437;28;45265;-80
2021/11/01 13:27:55;;;;;;;;;1.00;1.00;;;;;23.23;79.88;99593.41;5067328;28;46031;-80
2021/11/01 13:38:53;;;;;;;;;1.75;1.00;;;;;23.17;75.63;99588.88;5039890;28;45250;-80
2021/11/01 13:41:28;;;;;;;;;4.75;1.75;;;;;23.16;75.92;99592.59;5047225;28;45339;-80
2021/11/01 13:44:22;;;;;;;;;1.50;1.00;;;;;23.01;74.03;99573.19;5059663;28;45241;-80
2021/11/01 13:46:56;;;;;;;;;3.75;1.00;;;;;22.70;75.49;99574.69;5059924;28;45225;-80
2021/11/01 13:49:22;;;;;;;;;1.75;1.75;;;;;22.65;75.76;99576.38;5059720;28;45411;-80
2021/11/01 13:51:50;;;;;;;;;1.25;1.00;;;;;22.72;75.28;99561.03;5059908;28;45294;-80
2021/11/01 13:57:04;;;;;;;;;4.25;1.00;;;;;22.73;74.74;99603.06;5072567;28;45216;-80
2021/11/01 14:13:22;;;;;;;;;1.50;1.00;;;;;20.25;100.00;99624.19;5069221;28;45512;-80
2021/11/01 14:16:52;;;;;;;;;1.50;1.50;;;;;20.26;100.00;99625.84;5044930;28;45588;-79
2021/11/01 14:32:07;;;;;;;;;2.00;0.00;;;;;19.66;100.00;99605.69;5063073;28;45442;-80
2021/11/01 14:55:11;;;;;;;;;0.00;0.00;;;;;19.99;100.00;99614.06;5042796;28;45222;-79
2021/11/01 15:26:10;;;;;;;;;0.00;0.00;;;;;24.28;95.44;99640.56;5062026;28;45497;-80
2021/11/01 15:34:44;;;;;;;;;0.00;0.00;;;;;24.27;92.22;99595.75;5061813;28;45437;-80
2021/11/01 16:19:49;;;;;;;;;1.00;1.00;;;;;21.37;98.46;99623.13;5060953;28;45225;-80
2021/11/01 16:22:17;;;;;;;;;1.00;1.00;;;;;21.00;100.00;99631.56;5043246;28;45337;-81
2021/11/01 16:24:42;;;;;;;;;2.00;1.00;;;;;20.82;100.00;99618.69;5060970;28;45604;-81
2021/11/01 16:27:09;;;;;;;;;1.00;1.00;;;;;20.86;100.00;99626.13;5063819;28;45668;-81
2021/11/01 16:29:47;;;;;;;;;0.25;0.25;;;;;20.90;100.00;99624.72;5063005;28;45212;-81
2021/11/01 16:32:21;;;;;;;;;1.75;1.75;;;;;21.05;100.00;99634.47;5061253;28;45460;-81
2021/11/01 16:34:51;;;;;;;;;1.00;1.00;;;;;21.02;100.00;99635.72;5061311;28;45470;-80
2021/11/01 16:39:51;;;;;;;;;1.00;1.00;;;;;20.92;100.00;99629.88;5044294;28;45487;-80
2021/11/01 16:42:22;;;;;;;;;3.00;1.00;;;;;20.73;100.00;99626.03;5040841;28;45428;-80
2021/11/01 16:44:49;;;;;;;;;2.75;2.00;;;;;20.80;100.00;99634.97;5022791;28;45855;-80
2021/11/01 16:47:16;;;;;;;;;2.00;0.00;;;;;20.61;100.00;99645.56;5042318;28;46376;-80
2021/11/01 16:49:43;;;;;;;;;2.25;1.75;;;;;20.54;100.00;99646.34;5042673;28;45565;-80
2021/11/01 16:52:15;;;;;;;;;3.00;2.00;;;;;20.55;100.00;99647.16;5045280;28;45238;-80
2021/11/01 16:54:55;;;;;;;;;3.00;1.25;;;;;20.63;100.00;99647.03;5040684;28;45274;-80
2021/11/01 17:25:23;;;;;;;;;4.00;1.50;;;;;20.25;100.00;99653.66;5060463;28;45396;-80
2021/11/01 18:37:20;;;;;;;;;11.25;10.75;;;;;19.16;100.00;99711.69;5062627;28;45880;-81
2021/11/01 18:45:27;;;;;;;;;9.50;7.25;;;;;19.14;100.00;99703.00;5062683;28;45237;-80
2021/11/01 18:51:02;;;;;;;;;10.00;10.00;;;;;19.10;100.00;99707.09;5064411;28;45553;-80
2021/11/01 18:53:43;;;;;;;;;10.75;10.75;;;;;19.16;100.00;99702.84;5063896;28;45447;-81
2021/11/01 18:56:12;;;;;;;;;10.50;8.25;;;;;19.10;100.00;99701.75;5070929;28;45299;-80
2021/11/01 18:58:40;;;;;;;;;10.25;9.25;;;;;19.15;100.00;99704.69;5045519;28;47179;-80
2021/11/01 19:01:11;;;;;;;;;9.50;9.00;;;;;19.01;100.00;99703.66;5042244;28;45521;-80
2021/11/01 19:03:47;;;;;;;;;12.75;9.00;;;;;19.09;100.00;99700.06;5023855;28;45597;-80
2021/11/01 19:06:34;;;;;;;;;9.75;9.75;;;;;19.09;100.00;99696.56;5042358;28;45428;-81
2021/11/01 20:04:46;;;;;;;;;14.50;14.00;;;;;18.82;100.00;99690.81;5061090;28;45871;-80
2021/11/01 20:08:08;;;;;;;;;14.25;12.75;;;;;18.54;100.00;99695.88;5060720;28;45529;-80
2021/11/01 20:10:46;;;;;;;;;17.50;14.25;;;;;18.49;100.00;99686.72;5061106;28;45341;-80
2021/11/01 20:13:12;;;;;;;;;19.25;16.00;;;;;18.46;100.00;99684.44;5064846;28;45548;-80
2021/11/01 20:15:59;;;;;;;;;18.25;12.25;;;;;18.30;100.00;99678.19;5061246;28;45336;-80
2021/11/01 21:25:09;;;;;;;;;14.25;12.75;;;;;18.47;100.00;99670.06;5069104;28;45217;-79
2021/11/01 21:27:35;;;;;;;;;17.75;11.50;;;;;18.40;100.00;99672.59;5077123;28;44780;-80
2021/11/01 21:30:01;;;;;;;;;10.00;7.00;;;;;18.26;100.00;99668.88;5070185;28;45319;-81
2021/11/01 21:32:27;;;;;;;;;5.75;5.00;;;;;18.40;100.00;99663.75;5065571;28;45556;-80
2021/11/01 21:35:04;;;;;;;;;5.00;5.00;;;;;18.25;100.00;99675.22;5060747;28;45428;-80
2021/11/01 21:37:30;;;;;;;;;7.75;7.50;;;;;18.26;100.00;99666.22;5060658;28;45212;-80
2021/11/01 21:39:58;;;;;;;;;10.75;6.25;;;;;18.31;100.00;99661.16;5062021;28;45236;-80
2021/11/01 21:42:24;;;;;;;;;9.25;7.50;;;;;18.26;100.00;99660.88;5045707;28;47080;-80
2021/11/01 21:44:49;;;;;;;;;7.00;4.00;;;;;18.25;100.00;99645.84;5052732;28;45397;-80
2021/11/01 21:47:14;;;;;;;;;8.00;5.50;;;;;18.24;100.00;99652.19;5039849;28;45257;-80
2021/11/01 21:49:40;;;;;;;;;5.25;4.75;;;;;18.22;100.00;99653.38;5040129;28;45376;-80
2021/11/01 21:52:06;;;;;;;;;11.00;6.25;;;;;18.59;100.00;99648.06;5053202;28;45326;-80
2021/11/01 21:54:35;;;;;;;;;9.25;3.25;;;;;18.23;100.00;99644.34;5039915;28;45455;-80
2021/11/01 22:21:00;;;;;;;;;13.00;9.00;;;;;18.59;100.00;99624.00;5061991;28;45496;-79
2021/11/01 22:25:55;;;;;;;;;9.75;8.50;;;;;18.55;100.00;99628.03;5060767;28;45246;-79
2021/11/01 22:34:34;;;;;;;;;10.00;9.00;;;;;18.45;100.00;99619.44;5060536;28;45678;-77
2021/11/01 22:39:44;;;;;;;;;10.00;7.50;;;;;18.38;100.00;99615.84;5056907;28;45478;-77
2021/11/01 22:57:44;;;;;;;;;6.50;5.00;;;;;18.57;100.00;99593.13;5057932;28;45142;-82
2021/11/01 23:00:20;;;;;;;;;12.25;5.25;;;;;18.66;100.00;99600.84;5044043;28;45514;-81
2021/11/01 23:02:50;;;;;;;;;7.00;5.00;;;;;18.40;100.00;99600.41;5043788;28;45233;-80
2021/11/01 23:32:25;;;;;;;;;11.00;4.50;;;;;18.41;100.00;99585.22;5061778;28;45402;-81
2021/11/01 23:34:51;;;;;;;;;4.00;3.75;;;;;18.27;100.00;99592.22;5065402;28;45442;-81
2021/11/01 23:37:19;;;;;;;;;2.25;2.25;;;;;18.22;100.00;99589.22;5036659;28;47957;-81
2021/11/01 23:39:44;;;;;;;;;6.75;3.00;;;;;18.13;100.00;99590.31;5050585;28;46067;-81
2021/11/01 23:42:09;;;;;;;;;4.50;3.50;;;;;18.06;100.00;99584.88;5054390;28;45387;-83
2021/11/01 23:44:35;;;;;;;;;3.50;2.25;;;;;18.08;100.00;99584.69;5041571;28;45819;-82
2021/11/01 23:47:00;;;;;;;;;2.75;2.00;;;;;18.06;100.00;99578.69;5041254;28;45969;-82
2021/11/01 23:49:26;;;;;;;;;4.00;3.00;;;;;18.27;100.00;99578.84;5031305;28;46087;-81
2021/11/01 23:52:10;;;;;;;;;7.00;3.00;;;;;18.33;100.00;99573.59;5042738;28;45449;-83
2021/11/01 23:54:44;;;;;;;;;2.00;2.00;;;;;18.08;100.00;99580.19;5061439;28;45290;-81